Time;durP1;ratioP1;P1;durP2;ratioP2;P2;SDS_P1;SDS_P2;PMS_P1;PMS_P2;Temp;Humidity;BMP_temperature;BMP_pressure;BME280_temperature;BME280_humidity;BME280_pressure;Samples;Min_cycle;Max_cycle;Signal;HPM_P1;HPM_P2
2022/12/29 00:05:13;;;;;;;6.63;2.38;;;;;;;5.54;66.71;99886.22;30977547;28;97236;-67
2022/12/29 00:35:39;;;;;;;3.10;1.80;;;;;;;5.82;65.15;99865.06;30975807;28;96679;-67
2022/12/29 00:50:39;;;;;;;3.97;2.00;;;;;;;5.81;65.13;99827.22;30974299;28;97323;-68
2022/12/29 01:05:40;;;;;;;4.00;1.77;;;;;;;5.70;64.84;99830.06;30973489;28;96706;-67
2022/12/29 01:20:40;;;;;;;6.97;2.22;;;;;;;5.61;65.36;99810.66;30992494;28;96929;-67
2022/12/29 01:35:40;;;;;;;3.40;1.77;;;;;;;5.59;65.88;99797.59;30992452;28;96472;-67
2022/12/29 01:50:49;;;;;;;3.03;1.00;;;;;;;5.82;65.69;99783.13;30989617;28;97303;-67
2022/12/29 02:05:56;;;;;;;6.43;1.73;;;;;;;5.83;65.29;99758.34;30989073;28;97877;-67
2022/12/29 02:21:11;;;;;;;4.05;1.75;;;;;;;5.62;65.28;99764.75;30987144;28;97248;-67
2022/12/29 02:36:24;;;;;;;3.92;1.77;;;;;;;5.59;64.88;99755.31;30985963;28;96618;-67
2022/12/29 02:51:38;;;;;;;4.15;1.50;;;;;;;5.52;65.23;99721.69;30984467;28;96606;-68
2022/12/29 03:07:04;;;;;;;4.03;1.95;;;;;;;5.39;65.21;99725.53;30982708;28;96732;-67
2022/12/29 03:22:27;;;;;;;3.70;1.73;;;;;;;5.48;65.00;99707.13;30979868;28;96725;-67
2022/12/29 03:37:35;;;;;;;3.88;2.30;;;;;;;5.73;64.63;99716.97;30979202;28;97300;-67
2022/12/29 03:52:36;;;;;;;4.32;2.30;;;;;;;5.75;63.73;99716.81;30977598;28;97309;-68
2022/12/29 04:07:36;;;;;;;4.28;1.75;;;;;;;5.70;63.96;99711.97;30977468;28;96668;-67
2022/12/29 04:22:36;;;;;;;3.97;2.53;;;;;;;5.65;63.75;99695.75;30976315;28;96715;-67
2022/12/29 04:37:37;;;;;;;3.95;2.08;;;;;;;5.88;63.53;99684.72;30973506;28;96664;-68
2022/12/29 04:52:37;;;;;;;5.60;1.50;;;;;;;5.95;63.30;99669.91;30987458;28;96704;-68
2022/12/29 05:07:38;;;;;;;4.13;2.13;;;;;;;6.06;62.71;99661.75;30989665;28;96632;-68
2022/12/29 05:22:38;;;;;;;7.32;2.45;;;;;;;6.03;62.83;99643.56;30989528;28;96747;-68
2022/12/29 05:37:39;;;;;;;2.97;1.95;;;;;;;6.19;61.77;99620.84;30989458;28;97242;-68
2022/12/29 05:52:39;;;;;;;4.85;2.35;;;;;;;6.05;61.75;99620.41;30984265;28;97326;-70
2022/12/29 06:07:39;;;;;;;3.75;2.17;;;;;;;6.07;60.87;99618.47;30962685;28;97199;-69
2022/12/29 06:22:40;;;;;;;4.47;2.85;;;;;;;6.07;61.05;99615.81;30986154;28;96622;-67
2022/12/29 06:37:40;;;;;;;3.67;2.58;;;;;;;6.07;61.29;99605.25;30987292;28;96655;-68
2022/12/29 06:52:41;;;;;;;4.65;2.55;;;;;;;6.18;60.96;99635.03;31007730;28;96867;-69
2022/12/29 07:07:41;;;;;;;4.82;2.25;;;;;;;6.28;60.90;99641.06;31001850;28;96595;-68
2022/12/29 07:22:42;;;;;;;4.65;2.75;;;;;;;6.26;60.47;99637.72;31002641;28;97011;-74
2022/12/29 07:37:42;;;;;;;5.50;3.35;;;;;;;6.35;60.66;99651.84;31000513;28;96941;-73
2022/12/29 07:52:43;;;;;;;5.85;3.00;;;;;;;6.39;60.39;99632.84;30997285;28;96736;-72
2022/12/29 08:07:44;;;;;;;7.80;2.95;;;;;;;6.53;60.86;99642.03;30978411;28;96627;-72
2022/12/29 08:22:44;;;;;;;7.60;3.80;;;;;;;7.01;60.57;99652.16;30989947;28;97841;-68
2022/12/29 08:37:45;;;;;;;5.07;2.75;;;;;;;7.48;59.62;99664.03;30983779;28;97586;-70
2022/12/29 08:52:45;;;;;;;6.72;2.92;;;;;;;7.88;58.67;99654.47;30995702;28;96777;-71
2022/12/29 09:07:46;;;;;;;5.80;3.67;;;;;;;7.68;58.67;99657.47;30978298;28;96985;-68
2022/12/29 09:22:47;;;;;;;6.15;3.40;;;;;;;7.82;58.26;99655.97;30978259;28;97579;-68
2022/12/29 09:37:47;;;;;;;6.68;3.63;;;;;;;8.38;57.81;99665.84;30979441;28;96940;-74
2022/12/29 09:53:01;;;;;;;6.55;3.03;;;;;;;8.66;57.38;99655.69;31000848;28;96741;-74
2022/12/29 10:08:30;;;;;;;7.50;3.40;;;;;;;8.68;57.22;99624.50;30989085;28;96788;-71
2022/12/29 10:23:44;;;;;;;2.37;1.33;;;;;;;9.85;56.38;99609.50;30983756;28;98709;-74
2022/12/29 10:38:58;;;;;;;6.17;3.07;;;;;;;10.08;55.54;99617.44;30985838;28;96878;-71
2022/12/29 10:54:18;;;;;;;4.77;2.00;;;;;;;10.80;52.97;99608.84;30982661;28;96986;-69
2022/12/29 11:09:27;;;;;;;7.50;2.47;;;;;;;12.18;49.86;99600.75;30970495;28;97044;-72
2022/12/29 11:24:29;;;;;;;5.43;2.53;;;;;;;13.27;47.36;99582.31;30979377;28;97147;-74
2022/12/29 11:39:32;;;;;;;7.77;3.73;;;;;;;12.18;47.51;99566.03;30980962;28;96634;-70
2022/12/29 11:54:37;;;;;;;7.87;2.57;;;;;;;12.04;48.30;99566.97;30978579;28;97391;-71
2022/12/29 12:09:58;;;;;;;6.97;2.40;;;;;;;11.97;48.09;99550.94;30976154;28;97655;-69
2022/12/29 12:25:21;;;;;;;6.00;2.77;;;;;;;11.55;49.34;99544.63;30973220;28;96766;-77
2022/12/29 12:40:46;;;;;;;4.83;2.73;;;;;;;11.64;50.27;99535.44;30976252;28;97338;-74
2022/12/29 12:55:55;;;;;;;7.93;3.60;;;;;;;13.17;48.77;99537.22;30965319;28;96827;-70
2022/12/29 13:11:16;;;;;;;6.43;3.07;;;;;;;16.48;44.07;99534.41;30978126;28;97437;-69
2022/12/29 13:26:50;;;;;;;4.73;2.03;;;;;;;20.14;35.62;99552.25;30985929;28;97412;-69
2022/12/29 13:41:55;;;;;;;5.10;2.13;;;;;;;21.85;32.62;99570.06;30974656;28;97504;-69
2022/12/29 13:57:07;;;;;;;6.33;2.63;;;;;;;18.34;34.13;99579.50;30972968;28;97380;-73
2022/12/29 14:12:29;;;;;;;10.00;4.43;;;;;;;12.95;42.13;99591.91;30977543;28;96748;-67
2022/12/29 14:27:29;;;;;;;6.97;4.00;;;;;;;10.10;48.65;99591.47;30978062;28;97231;-68
2022/12/29 14:42:31;;;;;;;7.90;4.72;;;;;;;8.86;52.12;99588.88;30980469;28;96708;-69
2022/12/29 14:57:36;;;;;;;11.47;4.63;;;;;;;8.21;54.61;99590.78;30975932;28;97411;-67
2022/12/29 15:12:43;;;;;;;10.33;5.30;;;;;;;7.63;56.06;99583.72;30977200;28;97524;-67
2022/12/29 15:27:51;;;;;;;10.70;4.60;;;;;;;7.09;57.73;99615.97;30973978;28;96606;-65
2022/12/29 15:43:20;;;;;;;10.50;6.25;;;;;;;6.82;58.49;99616.19;30972355;28;96709;-69
2022/12/29 15:58:23;;;;;;;10.13;5.13;;;;;;;6.63;59.39;99618.13;30972771;28;97913;-70
2022/12/29 16:13:30;;;;;;;;;;;;;;;6.48;59.39;99609.09;30972642;28;97695;-67
2022/12/29 16:28:38;;;;;;;12.75;7.70;;;;;;;6.34;60.29;99618.44;30971238;28;96717;-72
2022/12/29 16:43:42;;;;;;;11.70;6.22;;;;;;;6.29;61.31;99616.28;30976782;28;97885;-67
2022/12/29 16:58:46;;;;;;;;;;;;;;;6.54;61.21;99624.34;30991263;28;96716;-74
2022/12/29 17:13:46;;;;;;;12.15;5.45;;;;;;;6.74;61.44;99631.06;30991874;28;97540;-66
2022/12/29 17:28:47;;;;;;;10.80;6.22;;;;;;;6.82;60.64;99634.72;30986712;28;96698;-69
2022/12/29 17:43:47;;;;;;;9.93;6.03;;;;;;;6.86;61.05;99644.00;30985475;28;97076;-68
2022/12/29 17:58:49;;;;;;;14.02;6.65;;;;;;;6.75;61.24;99664.50;30982559;28;96744;-66
2022/12/29 18:13:51;;;;;;;9.82;5.32;;;;;;;6.61;61.31;99667.72;30980119;28;96978;-63
2022/12/29 18:28:52;;;;;;;9.90;5.20;;;;;;;6.53;61.53;99684.38;30980482;28;96747;-77
2022/12/29 18:43:52;;;;;;;12.32;6.65;;;;;;;6.57;61.97;99674.31;30979904;28;96969;-66
2022/12/29 18:58:54;;;;;;;14.68;7.03;;;;;;;6.48;62.26;99669.94;30980366;28;96805;-67
2022/12/29 19:13:54;;;;;;;14.05;7.53;;;;;;;6.32;61.74;99673.34;30975175;28;96624;-67
2022/12/29 19:28:55;;;;;;;10.65;6.00;;;;;;;6.26;62.53;99664.19;30976690;28;96756;-67
2022/12/29 19:43:56;;;;;;;12.65;7.22;;;;;;;6.10;62.88;99655.16;30976009;28;97977;-70
2022/12/29 19:58:56;;;;;;;11.90;7.30;;;;;;;5.92;63.86;99662.28;30966791;28;97974;-69
2022/12/29 20:13:56;;;;;;;15.15;8.13;;;;;;;5.97;64.18;99669.75;31018608;28;96872;-76
2022/12/29 20:28:58;;;;;;;13.43;7.20;;;;;;;5.98;64.46;99693.41;30987590;28;98209;-70
2022/12/29 20:43:59;;;;;;;15.80;8.18;;;;;;;5.79;64.85;99706.78;30990321;28;97311;-69
2022/12/29 20:59:00;;;;;;;13.75;7.13;;;;;;;5.69;65.45;99723.53;30991221;28;96608;-69
2022/12/29 21:14:00;;;;;;;11.98;6.45;;;;;;;5.62;66.04;99714.53;30988714;28;96690;-67
2022/12/29 21:29:02;;;;;;;12.73;7.22;;;;;;;5.54;66.08;99723.19;30987280;28;96986;-68
2022/12/29 22:14:40;;;;;;;16.15;8.20;;;;;;;5.72;66.94;99714.47;30986791;28;96693;-69
2022/12/29 22:29:41;;;;;;;14.35;8.15;;;;;;;5.81;66.57;99694.22;30985543;28;97220;-67
2022/12/29 22:44:41;;;;;;;13.75;7.78;;;;;;;5.89;66.77;99695.13;30983720;28;96967;-69
2022/12/29 22:59:42;;;;;;;11.00;6.63;;;;;;;6.28;66.46;99690.50;30983476;28;96510;-69
2022/12/29 23:14:42;;;;;;;13.82;6.78;;;;;;;6.47;66.20;99702.72;30981760;28;97260;-69
2022/12/29 23:29:43;;;;;;;11.80;6.53;;;;;;;6.50;65.49;99712.97;30979456;28;96937;-70
2022/12/29 23:44:43;;;;;;;9.43;5.38;;;;;;;6.41;66.29;99715.56;30978745;28;97010;-70
2022/12/29 23:59:43;;;;;;;9.27;6.13;;;;;;;6.23;65.96;99738.56;30976790;28;97074;-67
